sensor_id;sensor_type;location;lat;lon;timestamp;pressure;altitude;pressure_sealevel;temperature;humidity
42771;BME280;28426;42.872;25.314;2023-03-15T00:01:14;95817.50;;;8.16;33.65
42771;BME280;28426;42.872;25.314;2023-03-15T00:03:45;95824.44;;;8.17;34.05
42771;BME280;28426;42.872;25.314;2023-03-15T00:06:16;95810.97;;;8.18;33.78
42771;BME280;28426;42.872;25.314;2023-03-15T00:08:49;95814.44;;;8.19;34.34
42771;BME280;28426;42.872;25.314;2023-03-15T00:11:20;95822.22;;;8.20;34.04
42771;BME280;28426;42.872;25.314;2023-03-15T00:13:50;95815.06;;;8.21;34.31
42771;BME280;28426;42.872;25.314;2023-03-15T00:16:21;95823.22;;;8.19;34.23
42771;BME280;28426;42.872;25.314;2023-03-15T00:18:53;95818.75;;;8.20;34.62
42771;BME280;28426;42.872;25.314;2023-03-15T00:21:24;95816.88;;;8.20;35.00
42771;BME280;28426;42.872;25.314;2023-03-15T00:23:58;95814.44;;;8.19;35.01
42771;BME280;28426;42.872;25.314;2023-03-15T00:26:32;95809.94;;;8.19;34.96
42771;BME280;28426;42.872;25.314;2023-03-15T00:29:03;95810.13;;;8.18;34.97
42771;BME280;28426;42.872;25.314;2023-03-15T00:31:34;95806.47;;;8.19;35.04
42771;BME280;28426;42.872;25.314;2023-03-15T00:34:04;95801.97;;;8.19;35.16
42771;BME280;28426;42.872;25.314;2023-03-15T00:36:35;95799.13;;;8.21;35.16
42771;BME280;28426;42.872;25.314;2023-03-15T00:39:08;95797.28;;;8.21;35.56
42771;BME280;28426;42.872;25.314;2023-03-15T00:41:41;95797.28;;;8.15;35.60
42771;BME280;28426;42.872;25.314;2023-03-15T00:44:12;95784.78;;;8.15;35.77
42771;BME280;28426;42.872;25.314;2023-03-15T00:46:43;95779.47;;;8.08;35.87
42771;BME280;28426;42.872;25.314;2023-03-15T00:49:13;95774.97;;;8.09;36.02
42771;BME280;28426;42.872;25.314;2023-03-15T00:51:44;95768.44;;;8.05;36.25
42771;BME280;28426;42.872;25.314;2023-03-15T00:54:17;95767.41;;;8.06;35.98
42771;BME280;28426;42.872;25.314;2023-03-15T00:56:50;95750.88;;;8.04;36.47
42771;BME280;28426;42.872;25.314;2023-03-15T00:59:21;95754.13;;;8.06;36.12
42771;BME280;28426;42.872;25.314;2023-03-15T01:01:51;95747.78;;;8.07;36.28
42771;BME280;28426;42.872;25.314;2023-03-15T01:04:22;95749.44;;;8.08;36.52
42771;BME280;28426;42.872;25.314;2023-03-15T01:06:53;95747.19;;;8.05;36.44
42771;BME280;28426;42.872;25.314;2023-03-15T01:09:26;95746.16;;;8.06;36.28
42771;BME280;28426;42.872;25.314;2023-03-15T01:11:58;95737.34;;;8.05;36.00
42771;BME280;28426;42.872;25.314;2023-03-15T01:14:30;95741.47;;;8.08;35.80
42771;BME280;28426;42.872;25.314;2023-03-15T01:17:03;95730.03;;;8.07;35.87
42771;BME280;28426;42.872;25.314;2023-03-15T01:19:34;95731.44;;;8.10;35.59
42771;BME280;28426;42.872;25.314;2023-03-15T01:22:05;95725.94;;;8.11;35.88
42771;BME280;28426;42.872;25.314;2023-03-15T01:24:38;95716.75;;;8.14;35.57
42771;BME280;28426;42.872;25.314;2023-03-15T01:27:11;95713.69;;;8.17;35.30
42771;BME280;28426;42.872;25.314;2023-03-15T01:29:41;95706.31;;;8.19;35.20
42771;BME280;28426;42.872;25.314;2023-03-15T01:32:13;95706.31;;;8.19;35.26
42771;BME280;28426;42.872;25.314;2023-03-15T01:34:44;95706.94;;;8.21;34.85
42771;BME280;28426;42.872;25.314;2023-03-15T01:37:14;95701.41;;;8.23;34.96
42771;BME280;28426;42.872;25.314;2023-03-15T01:39:48;95708.97;;;8.26;34.97
42771;BME280;28426;42.872;25.314;2023-03-15T01:42:18;95701.81;;;8.20;34.89
42771;BME280;28426;42.872;25.314;2023-03-15T01:44:54;95689.13;;;8.02;35.42
42771;BME280;28426;42.872;25.314;2023-03-15T01:47:27;95690.75;;;8.03;34.95
42771;BME280;28426;42.872;25.314;2023-03-15T01:50:02;95690.56;;;8.04;35.28
42771;BME280;28426;42.872;25.314;2023-03-15T01:52:38;95694.66;;;8.07;35.00
42771;BME280;28426;42.872;25.314;2023-03-15T01:55:20;95695.09;;;8.10;35.26
42771;BME280;28426;42.872;25.314;2023-03-15T01:58:03;95691.78;;;8.15;35.04
42771;BME280;28426;42.872;25.314;2023-03-15T02:00:39;95685.88;;;8.20;34.92
42771;BME280;28426;42.872;25.314;2023-03-15T02:03:16;95686.28;;;8.23;34.91
42771;BME280;28426;42.872;25.314;2023-03-15T02:05:52;95682.00;;;8.29;35.18
42771;BME280;28426;42.872;25.314;2023-03-15T02:08:50;95689.53;;;8.32;34.64
42771;BME280;28426;42.872;25.314;2023-03-15T02:11:25;95687.50;;;8.34;34.95
42771;BME280;28426;42.872;25.314;2023-03-15T02:13:56;95687.91;;;8.38;34.72
42771;BME280;28426;42.872;25.314;2023-03-15T02:16:28;95690.56;;;8.38;34.92
42771;BME280;28426;42.872;25.314;2023-03-15T02:19:05;95686.47;;;8.42;34.91
42771;BME280;28426;42.872;25.314;2023-03-15T02:21:45;95679.31;;;8.43;34.55
42771;BME280;28426;42.872;25.314;2023-03-15T02:24:25;95694.03;;;8.45;34.87
42771;BME280;28426;42.872;25.314;2023-03-15T02:27:01;95685.84;;;8.47;34.77
42771;BME280;28426;42.872;25.314;2023-03-15T02:29:35;95679.31;;;8.49;34.56
42771;BME280;28426;42.872;25.314;2023-03-15T02:32:06;95679.91;;;8.51;34.91
42771;BME280;28426;42.872;25.314;2023-03-15T02:34:37;95682.56;;;8.51;34.86
42771;BME280;28426;42.872;25.314;2023-03-15T02:37:08;95687.72;;;8.53;34.45
42771;BME280;28426;42.872;25.314;2023-03-15T02:39:39;95688.34;;;8.55;34.70
42771;BME280;28426;42.872;25.314;2023-03-15T02:42:12;95689.13;;;8.56;34.53
42771;BME280;28426;42.872;25.314;2023-03-15T02:44:46;95691.59;;;8.57;34.60
42771;BME280;28426;42.872;25.314;2023-03-15T02:47:21;95693.41;;;8.57;34.69
42771;BME280;28426;42.872;25.314;2023-03-15T02:49:53;95689.13;;;8.56;34.89
42771;BME280;28426;42.872;25.314;2023-03-15T02:52:24;95683.03;;;8.55;34.50
42771;BME280;28426;42.872;25.314;2023-03-15T02:54:55;95695.88;;;8.58;34.79
42771;BME280;28426;42.872;25.314;2023-03-15T02:57:25;95687.09;;;8.58;34.79
42771;BME280;28426;42.872;25.314;2023-03-15T02:59:59;95686.28;;;8.57;34.55
42771;BME280;28426;42.872;25.314;2023-03-15T03:02:40;95691.59;;;8.57;34.87
42771;BME280;28426;42.872;25.314;2023-03-15T03:05:12;95697.72;;;8.58;34.94
42771;BME280;28426;42.872;25.314;2023-03-15T03:07:43;95696.91;;;8.57;34.94
42771;BME280;28426;42.872;25.314;2023-03-15T03:10:17;95697.72;;;8.58;34.76
42771;BME280;28426;42.872;25.314;2023-03-15T03:12:51;95692.41;;;8.58;34.93
42771;BME280;28426;42.872;25.314;2023-03-15T03:15:32;95696.91;;;8.57;35.11
42771;BME280;28426;42.872;25.314;2023-03-15T03:18:02;95699.38;;;8.59;34.89
42771;BME280;28426;42.872;25.314;2023-03-15T03:20:33;95699.38;;;8.59;35.07
42771;BME280;28426;42.872;25.314;2023-03-15T03:23:05;95690.34;;;8.60;35.18
42771;BME280;28426;42.872;25.314;2023-03-15T03:25:36;95690.34;;;8.60;35.26
42771;BME280;28426;42.872;25.314;2023-03-15T03:28:07;95683.81;;;8.56;35.32
42771;BME280;28426;42.872;25.314;2023-03-15T03:30:40;95698.53;;;8.45;34.96
42771;BME280;28426;42.872;25.314;2023-03-15T03:33:14;95686.28;;;8.23;35.18
42771;BME280;28426;42.872;25.314;2023-03-15T03:35:46;95692.19;;;8.05;35.23
42771;BME280;28426;42.872;25.314;2023-03-15T03:38:17;95684.25;;;7.85;35.44
42771;BME280;28426;42.872;25.314;2023-03-15T03:40:54;95684.22;;;7.71;35.47
42771;BME280;28426;42.872;25.314;2023-03-15T03:43:27;95685.84;;;7.59;35.79
42771;BME280;28426;42.872;25.314;2023-03-15T03:46:01;95685.00;;;7.52;35.93
42771;BME280;28426;42.872;25.314;2023-03-15T03:48:35;95678.88;;;7.44;36.22
42771;BME280;28426;42.872;25.314;2023-03-15T03:51:06;95681.28;;;7.39;36.43
42771;BME280;28426;42.872;25.314;2023-03-15T03:53:37;95683.72;;;7.34;36.87
42771;BME280;28426;42.872;25.314;2023-03-15T03:56:08;95686.56;;;7.32;37.31
42771;BME280;28426;42.872;25.314;2023-03-15T03:58:39;95679.22;;;7.28;38.03
42771;BME280;28426;42.872;25.314;2023-03-15T04:01:22;95682.91;;;7.27;38.26
42771;BME280;28426;42.872;25.314;2023-03-15T04:03:54;95670.84;;;7.24;38.92
42771;BME280;28426;42.872;25.314;2023-03-15T04:06:25;95669.38;;;7.22;39.11
42771;BME280;28426;42.872;25.314;2023-03-15T04:08:55;95668.78;;;7.19;39.06
42771;BME280;28426;42.872;25.314;2023-03-15T04:11:35;95675.50;;;7.15;39.15
42771;BME280;28426;42.872;25.314;2023-03-15T04:14:07;95670.38;;;7.14;39.47
42771;BME280;28426;42.872;25.314;2023-03-15T04:16:40;95669.97;;;7.10;39.90
42771;BME280;28426;42.872;25.314;2023-03-15T04:19:15;95661.59;;;7.06;39.80
42771;BME280;28426;42.872;25.314;2023-03-15T04:21:46;95670.97;;;7.02;40.00
42771;BME280;28426;42.872;25.314;2023-03-15T04:24:39;95672.38;;;6.98;40.32
42771;BME280;28426;42.872;25.314;2023-03-15T04:27:18;95681.56;;;6.96;40.45
42771;BME280;28426;42.872;25.314;2023-03-15T04:29:57;95673.38;;;6.90;41.16
42771;BME280;28426;42.872;25.314;2023-03-15T04:32:37;95676.78;;;6.84;41.27
42771;BME280;28426;42.872;25.314;2023-03-15T04:35:16;95673.72;;;6.80;41.50
42771;BME280;28426;42.872;25.314;2023-03-15T04:38:09;95688.38;;;6.76;41.71
42771;BME280;28426;42.872;25.314;2023-03-15T04:41:11;95684.69;;;6.71;42.06
42771;BME280;28426;42.872;25.314;2023-03-15T04:44:01;95686.72;;;6.69;42.18
42771;BME280;28426;42.872;25.314;2023-03-15T04:46:51;95678.91;;;6.60;41.97
42771;BME280;28426;42.872;25.314;2023-03-15T04:49:38;95683.81;;;6.57;42.27
42771;BME280;28426;42.872;25.314;2023-03-15T04:52:19;95690.28;;;6.54;42.19
42771;BME280;28426;42.872;25.314;2023-03-15T04:55:08;95684.56;;;6.50;42.56
42771;BME280;28426;42.872;25.314;2023-03-15T04:57:58;95692.69;;;6.49;43.01
42771;BME280;28426;42.872;25.314;2023-03-15T05:00:28;95686.97;;;6.45;42.69
42771;BME280;28426;42.872;25.314;2023-03-15T05:03:25;95684.53;;;6.44;42.77
42771;BME280;28426;42.872;25.314;2023-03-15T05:06:17;95681.25;;;6.41;42.83
42771;BME280;28426;42.872;25.314;2023-03-15T05:09:05;95686.56;;;6.41;42.85
42771;BME280;28426;42.872;25.314;2023-03-15T05:11:48;95685.72;;;6.41;43.06
42771;BME280;28426;42.872;25.314;2023-03-15T05:14:37;95679.59;;;6.40;43.43
42771;BME280;28426;42.872;25.314;2023-03-15T05:17:31;95673.50;;;6.40;43.62
42771;BME280;28426;42.872;25.314;2023-03-15T05:20:14;95661.69;;;6.43;43.86
42771;BME280;28426;42.872;25.314;2023-03-15T05:22:50;95662.72;;;6.41;43.44
42771;BME280;28426;42.872;25.314;2023-03-15T05:25:49;95644.31;;;6.33;43.95
42771;BME280;28426;42.872;25.314;2023-03-15T05:28:41;95657.00;;;6.45;43.67
42771;BME280;28426;42.872;25.314;2023-03-15T05:31:36;95651.31;;;6.48;43.66
42771;BME280;28426;42.872;25.314;2023-03-15T05:34:26;95651.75;;;6.51;44.13
42771;BME280;28426;42.872;25.314;2023-03-15T05:37:24;95647.69;;;6.56;44.31
42771;BME280;28426;42.872;25.314;2023-03-15T05:40:18;95649.34;;;6.57;44.22
42771;BME280;28426;42.872;25.314;2023-03-15T05:43:09;95639.16;;;6.60;44.63
42771;BME280;28426;42.872;25.314;2023-03-15T05:45:59;95644.09;;;6.63;44.37
42771;BME280;28426;42.872;25.314;2023-03-15T05:48:48;95643.28;;;6.70;44.13
42771;BME280;28426;42.872;25.314;2023-03-15T05:51:40;95632.06;;;6.74;43.79
42771;BME280;28426;42.872;25.314;2023-03-15T05:54:23;95621.50;;;6.81;44.18
42771;BME280;28426;42.872;25.314;2023-03-15T05:57:32;95615.03;;;6.90;44.27
42771;BME280;28426;42.872;25.314;2023-03-15T06:00:21;95621.78;;;7.00;44.34
42771;BME280;28426;42.872;25.314;2023-03-15T06:02:59;95631.22;;;7.09;43.81
42771;BME280;28426;42.872;25.314;2023-03-15T06:06:02;95631.63;;;7.19;43.61
42771;BME280;28426;42.872;25.314;2023-03-15T06:08:39;95632.25;;;7.28;43.77
42771;BME280;28426;42.872;25.314;2023-03-15T06:11:10;95639.84;;;7.38;43.75
42771;BME280;28426;42.872;25.314;2023-03-15T06:13:43;95647.41;;;7.48;43.18
42771;BME280;28426;42.872;25.314;2023-03-15T06:16:26;95638.06;;;7.59;41.84
42771;BME280;28426;42.872;25.314;2023-03-15T06:18:59;95643.38;;;7.72;41.73
42771;BME280;28426;42.872;25.314;2023-03-15T06:21:30;95645.84;;;7.88;40.67
42771;BME280;28426;42.872;25.314;2023-03-15T06:24:05;95647.84;;;8.06;40.48
42771;BME280;28426;42.872;25.314;2023-03-15T06:26:37;95646.63;;;8.29;40.69
42771;BME280;28426;42.872;25.314;2023-03-15T06:29:10;95650.28;;;8.55;40.60
42771;BME280;28426;42.872;25.314;2023-03-15T06:31:41;95643.84;;;8.83;40.02
42771;BME280;28426;42.872;25.314;2023-03-15T06:34:16;95646.78;;;9.13;39.91
42771;BME280;28426;42.872;25.314;2023-03-15T06:36:48;95643.56;;;9.44;39.22
42771;BME280;28426;42.872;25.314;2023-03-15T06:39:18;95648.16;;;9.68;38.37
42771;BME280;28426;42.872;25.314;2023-03-15T06:41:51;95641.00;;;9.88;38.58
42771;BME280;28426;42.872;25.314;2023-03-15T06:44:29;95628.63;;;10.00;37.62
42771;BME280;28426;42.872;25.314;2023-03-15T06:47:04;95629.41;;;10.07;36.67
42771;BME280;28426;42.872;25.314;2023-03-15T06:49:36;95633.69;;;10.08;36.58
42771;BME280;28426;42.872;25.314;2023-03-15T06:52:07;95632.66;;;10.10;36.69
42771;BME280;28426;42.872;25.314;2023-03-15T06:54:38;95637.97;;;10.10;36.49
42771;BME280;28426;42.872;25.314;2023-03-15T06:57:09;95632.81;;;10.15;36.85
42771;BME280;28426;42.872;25.314;2023-03-15T06:59:42;95620.84;;;10.24;36.48
42771;BME280;28426;42.872;25.314;2023-03-15T07:02:13;95614.34;;;10.39;36.47
42771;BME280;28426;42.872;25.314;2023-03-15T07:04:44;95606.09;;;10.47;36.24
42771;BME280;28426;42.872;25.314;2023-03-15T07:07:15;95618.75;;;10.52;35.87
42771;BME280;28426;42.872;25.314;2023-03-15T07:09:45;95629.78;;;10.55;35.41
42771;BME280;28426;42.872;25.314;2023-03-15T07:12:16;95622.38;;;10.57;34.78
42771;BME280;28426;42.872;25.314;2023-03-15T07:14:49;95632.63;;;10.61;33.79
42771;BME280;28426;42.872;25.314;2023-03-15T07:17:19;95624.63;;;10.61;34.08
42771;BME280;28426;42.872;25.314;2023-03-15T07:19:50;95624.38;;;10.62;34.21
42771;BME280;28426;42.872;25.314;2023-03-15T07:22:23;95614.97;;;10.59;34.29
42771;BME280;28426;42.872;25.314;2023-03-15T07:24:54;95620.75;;;10.56;33.90
42771;BME280;28426;42.872;25.314;2023-03-15T07:27:24;95619.78;;;10.51;33.68
42771;BME280;28426;42.872;25.314;2023-03-15T07:29:58;95626.22;;;10.43;33.43
42771;BME280;28426;42.872;25.314;2023-03-15T07:32:29;95632.41;;;10.37;33.74
42771;BME280;28426;42.872;25.314;2023-03-15T07:35:00;95636.19;;;10.29;33.06
42771;BME280;28426;42.872;25.314;2023-03-15T07:37:30;95643.19;;;10.23;33.23
42771;BME280;28426;42.872;25.314;2023-03-15T07:40:01;95635.88;;;10.18;33.10
42771;BME280;28426;42.872;25.314;2023-03-15T07:42:36;95635.25;;;10.16;33.51
42771;BME280;28426;42.872;25.314;2023-03-15T07:45:10;95631.94;;;10.21;33.19
42771;BME280;28426;42.872;25.314;2023-03-15T07:47:41;95627.06;;;10.37;33.41
42771;BME280;28426;42.872;25.314;2023-03-15T07:50:12;95634.81;;;10.64;32.97
42771;BME280;28426;42.872;25.314;2023-03-15T07:52:43;95632.25;;;10.94;32.90
42771;BME280;28426;42.872;25.314;2023-03-15T07:55:14;95628.78;;;11.24;32.34
42771;BME280;28426;42.872;25.314;2023-03-15T07:57:44;95618.09;;;11.55;31.48
42771;BME280;28426;42.872;25.314;2023-03-15T08:00:21;95614.94;;;11.89;32.09
42771;BME280;28426;42.872;25.314;2023-03-15T08:02:51;95618.59;;;12.19;31.20
42771;BME280;28426;42.872;25.314;2023-03-15T08:05:22;95609.38;;;12.38;30.44
42771;BME280;28426;42.872;25.314;2023-03-15T08:07:55;95611.00;;;12.51;30.72
42771;BME280;28426;42.872;25.314;2023-03-15T08:10:25;95616.22;;;12.58;30.42
42771;BME280;28426;42.872;25.314;2023-03-15T08:12:56;95617.63;;;12.73;31.32
42771;BME280;28426;42.872;25.314;2023-03-15T08:15:29;95612.19;;;12.97;30.97
42771;BME280;28426;42.872;25.314;2023-03-15T08:18:00;95610.81;;;13.23;30.65
42771;BME280;28426;42.872;25.314;2023-03-15T08:20:32;95601.16;;;13.51;30.69
42771;BME280;28426;42.872;25.314;2023-03-15T08:23:03;95609.25;;;13.85;30.89
42771;BME280;28426;42.872;25.314;2023-03-15T08:25:35;95608.84;;;14.28;30.46
42771;BME280;28426;42.872;25.314;2023-03-15T08:28:07;95613.00;;;14.75;30.08
42771;BME280;28426;42.872;25.314;2023-03-15T08:30:41;95618.25;;;15.10;29.75
42771;BME280;28426;42.872;25.314;2023-03-15T08:33:11;95623.69;;;15.37;28.89
42771;BME280;28426;42.872;25.314;2023-03-15T08:35:42;95614.47;;;15.61;28.60
42771;BME280;28426;42.872;25.314;2023-03-15T08:38:12;95616.75;;;15.74;27.67
42771;BME280;28426;42.872;25.314;2023-03-15T08:40:43;95600.50;;;15.86;27.49
42771;BME280;28426;42.872;25.314;2023-03-15T08:43:13;95603.03;;;15.98;28.37
42771;BME280;28426;42.872;25.314;2023-03-15T08:45:47;95625.16;;;16.11;27.12
42771;BME280;28426;42.872;25.314;2023-03-15T08:48:27;95605.78;;;16.08;27.37
42771;BME280;28426;42.872;25.314;2023-03-15T08:51:00;95613.31;;;16.06;27.56
42771;BME280;28426;42.872;25.314;2023-03-15T08:53:32;95603.97;;;15.87;27.14
42771;BME280;28426;42.872;25.314;2023-03-15T08:56:04;95602.31;;;15.80;27.47
42771;BME280;28426;42.872;25.314;2023-03-15T08:58:35;95600.38;;;15.76;27.23
42771;BME280;28426;42.872;25.314;2023-03-15T09:01:10;95597.28;;;15.56;27.07
42771;BME280;28426;42.872;25.314;2023-03-15T09:03:40;95591.09;;;15.34;27.12
42771;BME280;28426;42.872;25.314;2023-03-15T09:06:11;95589.59;;;15.15;27.55
42771;BME280;28426;42.872;25.314;2023-03-15T09:08:41;95586.34;;;14.91;27.79
42771;BME280;28426;42.872;25.314;2023-03-15T09:11:12;95590.22;;;14.78;28.02
42771;BME280;28426;42.872;25.314;2023-03-15T09:13:42;95575.78;;;14.62;28.11
42771;BME280;28426;42.872;25.314;2023-03-15T09:16:15;95576.19;;;14.54;28.43
42771;BME280;28426;42.872;25.314;2023-03-15T09:18:46;95566.69;;;14.46;28.50
42771;BME280;28426;42.872;25.314;2023-03-15T09:21:16;95572.38;;;14.49;28.32
42771;BME280;28426;42.872;25.314;2023-03-15T09:23:47;95579.06;;;14.47;28.28
42771;BME280;28426;42.872;25.314;2023-03-15T09:26:17;95574.13;;;14.38;28.50
42771;BME280;28426;42.872;25.314;2023-03-15T09:28:48;95566.25;;;14.32;28.69
42771;BME280;28426;42.872;25.314;2023-03-15T09:31:21;95573.22;;;14.33;28.78
42771;BME280;28426;42.872;25.314;2023-03-15T09:33:52;95558.97;;;14.32;28.90
42771;BME280;28426;42.872;25.314;2023-03-15T09:36:22;95564.63;;;14.31;28.63
42771;BME280;28426;42.872;25.314;2023-03-15T09:38:53;95554.94;;;14.30;28.88
42771;BME280;28426;42.872;25.314;2023-03-15T09:41:35;95550.63;;;14.29;28.85
42771;BME280;28426;42.872;25.314;2023-03-15T09:44:17;95549.84;;;14.28;28.55
42771;BME280;28426;42.872;25.314;2023-03-15T09:47:03;95546.81;;;14.24;28.62
42771;BME280;28426;42.872;25.314;2023-03-15T09:49:43;95538.44;;;14.21;28.50
42771;BME280;28426;42.872;25.314;2023-03-15T09:52:24;95523.09;;;14.16;28.44
42771;BME280;28426;42.872;25.314;2023-03-15T09:54:57;95530.00;;;14.12;28.50
42771;BME280;28426;42.872;25.314;2023-03-15T09:57:36;95528.91;;;14.08;28.51
42771;BME280;28426;42.872;25.314;2023-03-15T10:00:13;95526.13;;;14.03;28.52
42771;BME280;28426;42.872;25.314;2023-03-15T10:02:55;95532.00;;;13.99;28.67
42771;BME280;28426;42.872;25.314;2023-03-15T10:05:36;95534.09;;;13.97;28.80
42771;BME280;28426;42.872;25.314;2023-03-15T10:08:09;95537.84;;;13.96;28.88
42771;BME280;28426;42.872;25.314;2023-03-15T10:10:48;95535.41;;;13.95;28.74
42771;BME280;28426;42.872;25.314;2023-03-15T10:13:42;95534.25;;;13.91;28.02
42771;BME280;28426;42.872;25.314;2023-03-15T10:16:26;95519.41;;;13.83;28.30
42771;BME280;28426;42.872;25.314;2023-03-15T10:19:08;95521.53;;;13.81;28.71
42771;BME280;28426;42.872;25.314;2023-03-15T10:21:51;95512.66;;;13.80;28.71
42771;BME280;28426;42.872;25.314;2023-03-15T10:24:30;95518.50;;;13.77;28.60
42771;BME280;28426;42.872;25.314;2023-03-15T10:27:14;95507.47;;;13.73;28.56
42771;BME280;28426;42.872;25.314;2023-03-15T10:29:46;95514.69;;;13.73;28.56
42771;BME280;28426;42.872;25.314;2023-03-15T10:32:20;95518.84;;;13.81;29.10
42771;BME280;28426;42.872;25.314;2023-03-15T10:34:56;95520.94;;;13.96;28.94
42771;BME280;28426;42.872;25.314;2023-03-15T10:37:28;95508.53;;;14.12;28.94
42771;BME280;28426;42.872;25.314;2023-03-15T10:39:59;95510.97;;;14.31;29.00
42771;BME280;28426;42.872;25.314;2023-03-15T10:42:35;95499.41;;;14.52;29.48
42771;BME280;28426;42.872;25.314;2023-03-15T10:45:21;95492.25;;;14.81;28.81
42771;BME280;28426;42.872;25.314;2023-03-15T10:47:51;95496.00;;;15.07;29.26
42771;BME280;28426;42.872;25.314;2023-03-15T10:50:30;95489.19;;;15.27;28.58
42771;BME280;28426;42.872;25.314;2023-03-15T10:53:08;95498.59;;;15.57;28.36
42771;BME280;28426;42.872;25.314;2023-03-15T10:55:42;95500.84;;;15.71;27.79
42771;BME280;28426;42.872;25.314;2023-03-15T10:58:26;95495.28;;;15.82;27.97
42771;BME280;28426;42.872;25.314;2023-03-15T11:00:59;95496.25;;;16.04;28.08
42771;BME280;28426;42.872;25.314;2023-03-15T11:03:30;95495.84;;;16.23;28.04
42771;BME280;28426;42.872;25.314;2023-03-15T11:06:18;95491.88;;;16.41;27.53
42771;BME280;28426;42.872;25.314;2023-03-15T11:08:49;95489.22;;;16.51;27.98
42771;BME280;28426;42.872;25.314;2023-03-15T11:11:20;95493.28;;;16.54;27.36
42771;BME280;28426;42.872;25.314;2023-03-15T11:13:58;95489.50;;;16.50;26.59
42771;BME280;28426;42.872;25.314;2023-03-15T11:16:33;95491.88;;;16.41;26.93
42771;BME280;28426;42.872;25.314;2023-03-15T11:19:06;95495.06;;;16.32;26.94
42771;BME280;28426;42.872;25.314;2023-03-15T11:21:44;95486.44;;;16.25;27.21
42771;BME280;28426;42.872;25.314;2023-03-15T11:24:27;95483.72;;;16.20;27.26
42771;BME280;28426;42.872;25.314;2023-03-15T11:27:00;95479.63;;;16.17;27.32
42771;BME280;28426;42.872;25.314;2023-03-15T11:29:32;95479.34;;;16.14;27.48
42771;BME280;28426;42.872;25.314;2023-03-15T11:32:11;95468.59;;;16.14;27.67
42771;BME280;28426;42.872;25.314;2023-03-15T11:34:45;95476.16;;;16.17;27.64
42771;BME280;28426;42.872;25.314;2023-03-15T11:37:22;95472.94;;;16.20;27.34
42771;BME280;28426;42.872;25.314;2023-03-15T11:39:57;95476.72;;;16.24;27.39
42771;BME280;28426;42.872;25.314;2023-03-15T11:42:45;95466.25;;;16.28;27.03
42771;BME280;28426;42.872;25.314;2023-03-15T11:45:22;95458.19;;;16.28;26.63
42771;BME280;28426;42.872;25.314;2023-03-15T11:47:55;95455.72;;;16.21;26.37
42771;BME280;28426;42.872;25.314;2023-03-15T11:50:28;95453.53;;;16.13;26.83
42771;BME280;28426;42.872;25.314;2023-03-15T11:53:02;95456.19;;;16.07;27.00
42771;BME280;28426;42.872;25.314;2023-03-15T11:55:34;95449.97;;;16.02;26.83
42771;BME280;28426;42.872;25.314;2023-03-15T11:58:40;95455.28;;;15.91;26.20
42771;BME280;28426;42.872;25.314;2023-03-15T12:01:24;95449.28;;;15.79;26.87
42771;BME280;28426;42.872;25.314;2023-03-15T12:04:26;95451.59;;;15.65;27.11
42771;BME280;28426;42.872;25.314;2023-03-15T12:06:59;95450.69;;;15.54;27.37
42771;BME280;28426;42.872;25.314;2023-03-15T12:09:47;95452.81;;;15.47;27.27
42771;BME280;28426;42.872;25.314;2023-03-15T12:12:35;95453.03;;;15.40;27.52
42771;BME280;28426;42.872;25.314;2023-03-15T12:15:41;95449.75;;;15.33;28.02
42771;BME280;28426;42.872;25.314;2023-03-15T12:21:19;95449.69;;;15.27;28.55
42771;BME280;28426;42.872;25.314;2023-03-15T12:23:59;95456.16;;;15.26;28.88
42771;BME280;28426;42.872;25.314;2023-03-15T12:26:47;95472.78;;;15.23;28.70
42771;BME280;28426;42.872;25.314;2023-03-15T12:29:21;95464.13;;;15.16;29.02
42771;BME280;28426;42.872;25.314;2023-03-15T12:31:58;95468.31;;;15.07;29.37
42771;BME280;28426;42.872;25.314;2023-03-15T12:34:44;95473.34;;;14.98;29.28
42771;BME280;28426;42.872;25.314;2023-03-15T12:37:19;95467.63;;;14.89;29.63
42771;BME280;28426;42.872;25.314;2023-03-15T12:39:52;95472.94;;;14.84;29.74
42771;BME280;28426;42.872;25.314;2023-03-15T12:45:49;95475.97;;;14.70;30.08
42771;BME280;28426;42.872;25.314;2023-03-15T12:48:23;95474.84;;;14.66;30.25
42771;BME280;28426;42.872;25.314;2023-03-15T12:51:05;95464.66;;;14.63;30.57
42771;BME280;28426;42.872;25.314;2023-03-15T12:53:58;95466.75;;;14.61;31.00
42771;BME280;28426;42.872;25.314;2023-03-15T12:56:37;95460.34;;;14.62;31.10
42771;BME280;28426;42.872;25.314;2023-03-15T12:59:16;95454.97;;;14.62;31.18
42771;BME280;28426;42.872;25.314;2023-03-15T13:01:51;95461.38;;;14.61;31.24
42771;BME280;28426;42.872;25.314;2023-03-15T13:04:22;95459.53;;;14.61;31.15
42771;BME280;28426;42.872;25.314;2023-03-15T13:07:06;95456.00;;;14.61;31.42
42771;BME280;28426;42.872;25.314;2023-03-15T13:10:00;95456.25;;;14.59;31.45
42771;BME280;28426;42.872;25.314;2023-03-15T13:12:36;95456.25;;;14.59;31.44
42771;BME280;28426;42.872;25.314;2023-03-15T13:15:11;95463.53;;;14.59;31.37
42771;BME280;28426;42.872;25.314;2023-03-15T13:17:50;95460.53;;;14.55;31.33
42771;BME280;28426;42.872;25.314;2023-03-15T13:20:39;95466.69;;;14.56;31.50
42771;BME280;28426;42.872;25.314;2023-03-15T13:23:14;95475.31;;;14.58;31.52
42771;BME280;28426;42.872;25.314;2023-03-15T13:25:53;95474.00;;;14.60;31.58
42771;BME280;28426;42.872;25.314;2023-03-15T13:28:32;95477.00;;;14.64;31.60
42771;BME280;28426;42.872;25.314;2023-03-15T13:31:17;95482.38;;;14.64;31.77
42771;BME280;28426;42.872;25.314;2023-03-15T13:33:53;95477.50;;;14.61;31.86
42771;BME280;28426;42.872;25.314;2023-03-15T13:36:26;95469.69;;;14.59;31.75
42771;BME280;28426;42.872;25.314;2023-03-15T13:38:57;95488.75;;;14.58;32.04
42771;BME280;28426;42.872;25.314;2023-03-15T13:41:29;95479.31;;;14.55;32.22
42771;BME280;28426;42.872;25.314;2023-03-15T13:44:01;95483.28;;;14.52;32.19
42771;BME280;28426;42.872;25.314;2023-03-15T13:46:34;95489.72;;;14.51;32.03
42771;BME280;28426;42.872;25.314;2023-03-15T13:49:10;95487.03;;;14.51;32.09